Normandie — FNNO — position and weather

sailwx.info

Track history (hours):
 
Tides and Currents Weather Stations Pressure Air Temp Water Temp Dewpoint Dewpoint Depression Visibility Wind Speed Wind Dir Waves Ship Positions

Normandie

Operator: Brittany Ferries

Last reported at 2020-Sep-18 07:31 UTC. Time now 2020-Sep-18 08:02 UTC.
Position N 49°30' W 000°22'.

Length 161 m; beam 27 m.

Type: Ship (hazmat cat B). MMSI: 227273000.

Date/timePositionNaut miles runAvg speedWind from/ knotsBaromVisibWave heightAir tempDewpointWater temp
2020-Sep-18 07:31N 49°30' W 000°22'815.3
2020-Sep-18 07:01N 49°23' W 000°16'6 2.8
2020-Sep-18 05:00N 49°17' W 000°15'2311.4
2020-Sep-18 03:01N 49°40' W 000°23'58 7.6
2020-Sep-17 19:24N 50°34' W 000°56'4418.4
2020-Sep-17 17:01N 49°51' W 000°37'2919.1
2020-Sep-17 15:31N 49°26' W 000°18'8 8.4
2020-Sep-17 14:30N 49°17' W 000°15'11 4.6
2020-Sep-17 12:01N 49°29' W 000°17'7518.7
2020-Sep-17 08:01N 50°39' W 000°58'917.0
2020-Sep-17 07:30N 50°46' W 001°05'3 5.3
2020-Sep-17 07:00N 50°49' W 001°06'0 0.0
2020-Sep-17 06:30N 50°49' W 001°06'22 7.5
2020-Sep-17 03:30N 50°28' W 000°53'3314.4
2020-Sep-17 01:11N 49°57' W 000°36'314.5
2020-Sep-17 00:59N 49°54' W 000°34'611.4
2020-Sep-17 00:29N 49°49' W 000°31'510.1
2020-Sep-17 00:00N 49°44' W 000°28'28 8.0
2020-Sep-16 20:30N 49°17' W 000°15'0 0.0
2020-Sep-16 18:30N 49°17' W 000°15'0 0.0
2020-Sep-16 18:01N 49°17' W 000°15'0 0.0
2020-Sep-16 17:01N 49°17' W 000°15'0 0.0
2020-Sep-16 16:30N 49°17' W 000°15'14 3.0
2020-Sep-16 12:00N 49°31' W 000°19'8316.7
2020-Sep-16 07:01N 50°49' W 001°06'2 1.2
2020-Sep-16 05:00N 50°46' W 001°06'713.4
2020-Sep-16 04:30N 50°42' W 000°58'815.0
2020-Sep-16 04:00N 50°34' W 000°56'4611.6
2020-Sep-16 00:00N 49°50' W 000°33'612.1
2020-Sep-15 23:30N 49°45' W 000°30'1211.8
2020-Sep-15 22:30N 49°34' W 000°23'17 8.5
2020-Sep-15 20:30N 49°17' W 000°15'9514.6
2020-Sep-15 14:00N 50°46' W 001°06'2 4.7
2020-Sep-15 13:30N 50°49' W 001°06'1 0.4
2020-Sep-15 12:00N 50°48' W 001°07'4317.0
2020-Sep-15 09:30N 50°09' W 000°42'3618.2
2020-Sep-15 07:30N 49°35' W 000°22'18 9.1
2020-Sep-15 05:30N 49°17' W 000°15'24 9.5
2020-Sep-15 03:00N 49°40' W 000°25'1816.8
2020-Sep-15 01:56N 49°57' W 000°35'5511.2
2020-Sep-14 21:00N 50°49' W 001°06'1 0.7
2020-Sep-14 20:01N 50°48' W 001°07'9717.6
2020-Sep-14 14:30N 49°17' W 000°15'5 2.3
2020-Sep-14 12:31N 49°22' W 000°15'4317.2
2020-Sep-14 10:00N 50°02' W 000°39'5014.2
2020-Sep-14 06:30N 50°49' W 001°06'0 0.0
2020-Sep-14 05:31N 50°49' W 001°06'2 5.0
2020-Sep-14 05:01N 50°46' W 001°05'1514.9
2020-Sep-14 04:00N 50°33' W 000°55'510.7
2020-Sep-14 03:30N 50°28' W 000°52'611.3
2020-Sep-14 03:00N 50°23' W 000°49'611.4
2020-Sep-14 02:30N 50°17' W 000°46'1711.6
2020-Sep-14 01:00N 50°01' W 000°38'2911.8
2020-Sep-13 22:30N 49°33' W 000°23'611.8
2020-Sep-13 22:00N 49°27' W 000°19'511.0
2020-Sep-13 21:30N 49°22' W 000°16'6611.9
2020-Sep-13 15:58N 50°25' W 000°50'1019.9
2020-Sep-13 15:27N 50°34' W 000°56'1616.6
2020-Sep-13 14:30N 50°48' W 001°07'1 0.8
2020-Sep-13 13:30N 50°49' W 001°06'5611.7
2020-Sep-13 08:45N 49°56' W 000°34'518.8
2020-Sep-13 08:28N 49°52' W 000°31'3610.4
2020-Sep-13 05:00N 49°17' W 000°15'0 0.2
2020-Sep-13 04:31N 49°17' W 000°15'713.4
2020-Sep-13 04:01N 49°24' W 000°15'3014.7
2020-Sep-13 02:00N 49°52' W 000°31'6112.3
2020-Sep-12 21:00N 50°49' W 001°06'0 0.0
2020-Sep-12 20:30N 50°49' W 001°06'6 6.3
2020-Sep-12 19:31N 50°43' W 001°02'6618.8
2020-Sep-12 16:00N 49°41' W 000°25'919.0
2020-Sep-12 15:31N 49°32' W 000°21'1515.5
2020-Sep-12 14:30N 49°17' W 000°15'9712.1
2020-Sep-12 06:31N 50°49' W 001°06'2 1.4
2020-Sep-12 05:00N 50°47' W 001°06'815.2
2020-Sep-12 04:29N 50°40' W 000°59'5512.2
2020-Sep-12 00:00N 49°48' W 000°31'1711.0
2020-Sep-11 22:30N 49°33' W 000°23'12 3.6
2020-Sep-11 19:00N 49°21' W 000°14'78 9.8
2020-Sep-11 11:00N 50°35' W 000°56'4518.3
2020-Sep-11 08:31N 49°52' W 000°31'018.9
2020-Sep-11 08:30N 49°52' W 000°31'918.8
2020-Sep-11 08:00N 49°43' W 000°26'2717.8
2020-Sep-11 06:31N 49°17' W 000°15'0 0.1
2020-Sep-11 06:01N 49°17' W 000°15'7 3.4
2020-Sep-11 04:00N 49°24' W 000°16'816.1
2020-Sep-11 03:30N 49°32' W 000°20'6616.3
2020-Sep-10 23:28N 50°34' W 000°55'1711.3
2020-Sep-10 22:00N 50°49' W 001°06'0 0.0
2020-Sep-10 21:30N 50°49' W 001°06'0 0.0
2020-Sep-10 21:00N 50°49' W 001°06'9 5.8
2020-Sep-10 19:30N 50°41' W 001°00'8817.7
2020-Sep-10 14:30N 49°17' W 000°15'24 7.9
2020-Sep-10 11:31N 49°40' W 000°23'1020.0
2020-Sep-10 11:01N 49°49' W 000°31'5819.2
2020-Sep-10 08:00N 50°43' W 001°01'4 1.2
2020-Sep-10 05:00N 50°45' W 001°05'5513.9
2020-Sep-10 01:02N 49°55' W 000°29'2110.3
2020-Sep-09 23:00N 49°35' W 000°21'18 5.2
2020-Sep-09 19:30N 49°17' W 000°15'0 0.0
2020-Sep-09 18:00N 49°17' W 000°15'0 0.0
2020-Sep-09 17:30N 49°17' W 000°15'0 0.0
2020-Sep-09 16:00N 49°17' W 000°15'0 0.0
2020-Sep-09 13:01N 49°17' W 000°15'3014.9
2020-Sep-09 11:00N 49°46' W 000°28'2718.2
2020-Sep-09 09:30N 50°11' W 000°45'918.8
2020-Sep-09 09:00N 50°20' W 000°50'1918.7
2020-Sep-09 08:00N 50°38' W 000°58'1212.2
2020-Sep-09 07:00N 50°49' W 001°06'0 0.0
2020-Sep-09 06:00N 50°49' W 001°06'3210.7
2020-Sep-09 03:00N 50°19' W 000°47'1515.4
2020-Sep-09 02:00N 50°05' W 000°38'1211.6
2020-Sep-09 00:59N 49°54' W 000°31'510.1
2020-Sep-09 00:30N 49°49' W 000°28'1010.0
2020-Sep-08 23:30N 49°40' W 000°22'18 4.0
2020-Sep-08 19:01N 49°23' W 000°15'4718.8
2020-Sep-08 16:30N 50°07' W 000°40'1919.4
2020-Sep-08 15:31N 50°25' W 000°50'1918.5
2020-Sep-08 14:28N 50°43' W 001°02'6 6.7
2020-Sep-08 13:30N 50°49' W 001°06'0 0.0
2020-Sep-08 13:00N 50°49' W 001°06'6213.8
2020-Sep-08 08:32N 49°50' W 000°36'1019.2
2020-Sep-08 08:00N 49°41' W 000°30'  
Track history (hours):
 
Tides and Currents Weather Stations Pressure Air Temp Water Temp Dewpoint Dewpoint Depression Visibility Wind Speed Wind Dir Waves Ship Positions

Normandie

Operator: Brittany Ferries

Last reported at 2020-Sep-18 07:31 UTC. Time now 2020-Sep-18 08:02 UTC.
Position N 49°30' W 000°22'.

Length 161 m; beam 27 m.

Type: Ship (hazmat cat B). MMSI: 227273000.

Date/timePositionNaut miles runAvg speedWind from/ knotsBaromVisibWave heightAir tempDewpointWater temp
2020-Sep-18 07:31N 49°30' W 000°22'815.3
2020-Sep-18 07:01N 49°23' W 000°16'6 2.8
2020-Sep-18 05:00N 49°17' W 000°15'2311.4
2020-Sep-18 03:01N 49°40' W 000°23'58 7.6
2020-Sep-17 19:24N 50°34' W 000°56'4418.4
2020-Sep-17 17:01N 49°51' W 000°37'2919.1
2020-Sep-17 15:31N 49°26' W 000°18'8 8.4
2020-Sep-17 14:30N 49°17' W 000°15'11 4.6
2020-Sep-17 12:01N 49°29' W 000°17'7518.7
2020-Sep-17 08:01N 50°39' W 000°58'917.0
2020-Sep-17 07:30N 50°46' W 001°05'3 5.3
2020-Sep-17 07:00N 50°49' W 001°06'0 0.0
2020-Sep-17 06:30N 50°49' W 001°06'22 7.5
2020-Sep-17 03:30N 50°28' W 000°53'3314.4
2020-Sep-17 01:11N 49°57' W 000°36'314.5
2020-Sep-17 00:59N 49°54' W 000°34'611.4
2020-Sep-17 00:29N 49°49' W 000°31'510.1
2020-Sep-17 00:00N 49°44' W 000°28'28 8.0
2020-Sep-16 20:30N 49°17' W 000°15'0 0.0
2020-Sep-16 18:30N 49°17' W 000°15'0 0.0
2020-Sep-16 18:01N 49°17' W 000°15'0 0.0
2020-Sep-16 17:01N 49°17' W 000°15'0 0.0
2020-Sep-16 16:30N 49°17' W 000°15'14 3.0
2020-Sep-16 12:00N 49°31' W 000°19'8316.7
2020-Sep-16 07:01N 50°49' W 001°06'2 1.2
2020-Sep-16 05:00N 50°46' W 001°06'713.4
2020-Sep-16 04:30N 50°42' W 000°58'815.0
2020-Sep-16 04:00N 50°34' W 000°56'4611.6
2020-Sep-16 00:00N 49°50' W 000°33'612.1
2020-Sep-15 23:30N 49°45' W 000°30'1211.8
2020-Sep-15 22:30N 49°34' W 000°23'17 8.5
2020-Sep-15 20:30N 49°17' W 000°15'9514.6
2020-Sep-15 14:00N 50°46' W 001°06'2 4.7
2020-Sep-15 13:30N 50°49' W 001°06'1 0.4
2020-Sep-15 12:00N 50°48' W 001°07'4317.0
2020-Sep-15 09:30N 50°09' W 000°42'3618.2
2020-Sep-15 07:30N 49°35' W 000°22'18 9.1
2020-Sep-15 05:30N 49°17' W 000°15'24 9.5
2020-Sep-15 03:00N 49°40' W 000°25'1816.8
2020-Sep-15 01:56N 49°57' W 000°35'5511.2
2020-Sep-14 21:00N 50°49' W 001°06'1 0.7
2020-Sep-14 20:01N 50°48' W 001°07'9717.6
2020-Sep-14 14:30N 49°17' W 000°15'5 2.3
2020-Sep-14 12:31N 49°22' W 000°15'4317.2
2020-Sep-14 10:00N 50°02' W 000°39'5014.2
2020-Sep-14 06:30N 50°49' W 001°06'0 0.0
2020-Sep-14 05:31N 50°49' W 001°06'2 5.0
2020-Sep-14 05:01N 50°46' W 001°05'1514.9
2020-Sep-14 04:00N 50°33' W 000°55'510.7
2020-Sep-14 03:30N 50°28' W 000°52'611.3
2020-Sep-14 03:00N 50°23' W 000°49'611.4
2020-Sep-14 02:30N 50°17' W 000°46'1711.6
2020-Sep-14 01:00N 50°01' W 000°38'2911.8
2020-Sep-13 22:30N 49°33' W 000°23'611.8
2020-Sep-13 22:00N 49°27' W 000°19'511.0
2020-Sep-13 21:30N 49°22' W 000°16'6611.9
2020-Sep-13 15:58N 50°25' W 000°50'1019.9
2020-Sep-13 15:27N 50°34' W 000°56'1616.6
2020-Sep-13 14:30N 50°48' W 001°07'1 0.8
2020-Sep-13 13:30N 50°49' W 001°06'5611.7
2020-Sep-13 08:45N 49°56' W 000°34'518.8
2020-Sep-13 08:28N 49°52' W 000°31'3610.4
2020-Sep-13 05:00N 49°17' W 000°15'0 0.2
2020-Sep-13 04:31N 49°17' W 000°15'713.4
2020-Sep-13 04:01N 49°24' W 000°15'3014.7
2020-Sep-13 02:00N 49°52' W 000°31'6112.3
2020-Sep-12 21:00N 50°49' W 001°06'0 0.0
2020-Sep-12 20:30N 50°49' W 001°06'6 6.3
2020-Sep-12 19:31N 50°43' W 001°02'6618.8
2020-Sep-12 16:00N 49°41' W 000°25'919.0
2020-Sep-12 15:31N 49°32' W 000°21'1515.5
2020-Sep-12 14:30N 49°17' W 000°15'9712.1
2020-Sep-12 06:31N 50°49' W 001°06'2 1.4
2020-Sep-12 05:00N 50°47' W 001°06'815.2
2020-Sep-12 04:29N 50°40' W 000°59'5512.2
2020-Sep-12 00:00N 49°48' W 000°31'1711.0
2020-Sep-11 22:30N 49°33' W 000°23'12 3.6
2020-Sep-11 19:00N 49°21' W 000°14'78 9.8
2020-Sep-11 11:00N 50°35' W 000°56'4518.3
2020-Sep-11 08:31N 49°52' W 000°31'018.9
2020-Sep-11 08:30N 49°52' W 000°31'918.8
2020-Sep-11 08:00N 49°43' W 000°26'2717.8
2020-Sep-11 06:31N 49°17' W 000°15'0 0.1
2020-Sep-11 06:01N 49°17' W 000°15'7 3.4
2020-Sep-11 04:00N 49°24' W 000°16'816.1
2020-Sep-11 03:30N 49°32' W 000°20'6616.3
2020-Sep-10 23:28N 50°34' W 000°55'1711.3
2020-Sep-10 22:00N 50°49' W 001°06'0 0.0
2020-Sep-10 21:30N 50°49' W 001°06'0 0.0
2020-Sep-10 21:00N 50°49' W 001°06'9 5.8
2020-Sep-10 19:30N 50°41' W 001°00'8817.7
2020-Sep-10 14:30N 49°17' W 000°15'24 7.9
2020-Sep-10 11:31N 49°40' W 000°23'1020.0
2020-Sep-10 11:01N 49°49' W 000°31'5819.2
2020-Sep-10 08:00N 50°43' W 001°01'4 1.2
2020-Sep-10 05:00N 50°45' W 001°05'5513.9
2020-Sep-10 01:02N 49°55' W 000°29'2110.3
2020-Sep-09 23:00N 49°35' W 000°21'18 5.2
2020-Sep-09 19:30N 49°17' W 000°15'0 0.0
2020-Sep-09 18:00N 49°17' W 000°15'0 0.0
2020-Sep-09 17:30N 49°17' W 000°15'0 0.0
2020-Sep-09 16:00N 49°17' W 000°15'0 0.0
2020-Sep-09 13:01N 49°17' W 000°15'3014.9
2020-Sep-09 11:00N 49°46' W 000°28'2718.2
2020-Sep-09 09:30N 50°11' W 000°45'918.8
2020-Sep-09 09:00N 50°20' W 000°50'1918.7
2020-Sep-09 08:00N 50°38' W 000°58'1212.2
2020-Sep-09 07:00N 50°49' W 001°06'0 0.0
2020-Sep-09 06:00N 50°49' W 001°06'3210.7
2020-Sep-09 03:00N 50°19' W 000°47'1515.4
2020-Sep-09 02:00N 50°05' W 000°38'1211.6
2020-Sep-09 00:59N 49°54' W 000°31'510.1
2020-Sep-09 00:30N 49°49' W 000°28'1010.0
2020-Sep-08 23:30N 49°40' W 000°22'18 4.0
2020-Sep-08 19:01N 49°23' W 000°15'4718.8
2020-Sep-08 16:30N 50°07' W 000°40'1919.4
2020-Sep-08 15:31N 50°25' W 000°50'1918.5
2020-Sep-08 14:28N 50°43' W 001°02'6 6.7
2020-Sep-08 13:30N 50°49' W 001°06'0 0.0
2020-Sep-08 13:00N 50°49' W 001°06'6213.8
2020-Sep-08 08:32N 49°50' W 000°36'1019.2
2020-Sep-08 08:00N 49°41' W 000°30'  

Dump ship's entire track history